Time;durP1;ratioP1;P1;durP2;ratioP2;P2;SDS_P1;SDS_P2;PMS_P1;PMS_P2;Temp;Humidity;BMP_temperature;BMP_pressure;BME280_temperature;BME280_humidity;BME280_pressure;Samples;Min_cycle;Max_cycle;Signal;HPM_P1;HPM_P2
2022/09/03 00:01:34;;;;;;;2.62;2.00;;;;;;;;;;4438272;32;20030;-69
2022/09/03 00:04:05;;;;;;;2.92;1.80;;;;;;;;;;4435093;32;20069;-69
2022/09/03 00:06:38;;;;;;;4.82;2.12;;;;;;;;;;4435371;32;20375;-69
2022/09/03 00:09:08;;;;;;;4.62;2.20;;;;;;;;;;4435907;32;20064;-69
2022/09/03 00:11:48;;;;;;;4.35;1.83;;;;;;;;;;4436065;32;20029;-69
2022/09/03 00:14:32;;;;;;;3.92;2.15;;;;;;;;;;4435480;32;20034;-69
2022/09/03 00:17:12;;;;;;;2.90;1.90;;;;;;;;;;4436531;32;20419;-69
2022/09/03 00:19:39;;;;;;;4.05;2.05;;;;;;;;;;4435492;32;20060;-71
2022/09/03 00:22:16;;;;;;;5.65;2.03;;;;;;;;;;4435668;32;20030;-69
2022/09/03 00:24:42;;;;;;;7.82;1.98;;;;;;;;;;4435869;32;20095;-69
2022/09/03 00:27:13;;;;;;;7.53;2.40;;;;;;;;;;4434612;32;20097;-69
2022/09/03 00:29:40;;;;;;;3.90;2.22;;;;;;;;;;4435675;32;20090;-69
2022/09/03 00:32:12;;;;;;;3.28;1.90;;;;;;;;;;4435495;32;20026;-69
2022/09/03 00:34:40;;;;;;;4.35;1.92;;;;;;;;;;4435372;32;20107;-69
2022/09/03 00:37:06;;;;;;;4.72;1.98;;;;;;;;;;4435184;32;20037;-69
2022/09/03 00:39:31;;;;;;;2.92;1.90;;;;;;;;;;4435267;32;20624;-70
2022/09/03 00:42:06;;;;;;;3.05;1.87;;;;;;;;;;4443571;32;20427;-69
2022/09/03 00:44:47;;;;;;;3.85;1.87;;;;;;;;;;4450706;32;20100;-69
2022/09/03 00:47:17;;;;;;;5.32;2.25;;;;;;;;;;4451172;32;20037;-69
2022/09/03 00:49:48;;;;;;;2.70;1.73;;;;;;;;;;4450021;32;20725;-69
2022/09/03 00:52:13;;;;;;;2.60;1.75;;;;;;;;;;4451077;32;20364;-69
2022/09/03 00:54:48;;;;;;;8.55;2.47;;;;;;;;;;4450209;32;20349;-69
2022/09/03 00:57:32;;;;;;;3.70;1.73;;;;;;;;;;4450575;32;20029;-69
2022/09/03 01:00:08;;;;;;;4.22;2.10;;;;;;;;;;4450646;32;20077;-69
2022/09/03 01:02:34;;;;;;;3.17;1.83;;;;;;;;;;4435486;32;20033;-69
2022/09/03 01:04:59;;;;;;;2.70;2.05;;;;;;;;;;4435225;32;20144;-69
2022/09/03 01:07:32;;;;;;;5.28;1.75;;;;;;;;;;4434852;32;20022;-70
2022/09/03 01:10:17;;;;;;;6.05;2.12;;;;;;;;;;4436067;32;20034;-69
2022/09/03 01:12:43;;;;;;;7.85;2.20;;;;;;;;;;4435558;32;20357;-69
2022/09/03 01:15:23;;;;;;;4.87;2.08;;;;;;;;;;4435324;32;20018;-69
2022/09/03 01:17:56;;;;;;;8.82;2.62;;;;;;;;;;4435589;32;20078;-69
2022/09/03 01:20:27;;;;;;;4.28;1.83;;;;;;;;;;4435502;32;20022;-69
2022/09/03 01:23:11;;;;;;;3.75;2.00;;;;;;;;;;4435095;32;20120;-69
2022/09/03 01:25:51;;;;;;;5.18;2.55;;;;;;;;;;4434098;32;20029;-69
2022/09/03 01:28:32;;;;;;;7.20;2.05;;;;;;;;;;4435161;32;20022;-69
2022/09/03 01:31:16;;;;;;;3.28;2.30;;;;;;;;;;4434139;32;20025;-69
2022/09/03 01:33:51;;;;;;;2.67;1.92;;;;;;;;;;4435074;32;20070;-69
2022/09/03 01:36:25;;;;;;;6.77;2.63;;;;;;;;;;4434447;32;20040;-69
2022/09/03 01:38:54;;;;;;;4.37;2.10;;;;;;;;;;4434472;32;20102;-69
2022/09/03 01:44:15;;;;;;;4.50;2.30;;;;;;;;;;4434892;32;20357;-69
2022/09/03 01:46:41;;;;;;;2.85;2.00;;;;;;;;;;4434379;32;20053;-69
2022/09/03 01:49:09;;;;;;;4.65;1.90;;;;;;;;;;4435290;32;20573;-69
2022/09/03 01:51:35;;;;;;;2.37;2.05;;;;;;;;;;4434094;32;20034;-69
2022/09/03 01:54:11;;;;;;;4.72;2.33;;;;;;;;;;4434600;32;20053;-69
2022/09/03 01:56:44;;;;;;;6.25;2.20;;;;;;;;;;4418982;32;20060;-69
2022/09/03 01:59:27;;;;;;;6.45;1.87;;;;;;;;;;4422213;32;20040;-69
2022/09/03 02:01:55;;;;;;;4.30;2.22;;;;;;;;;;4434773;32;20063;-69
2022/09/03 02:04:23;;;;;;;4.00;2.30;;;;;;;;;;4434275;32;20398;-69
2022/09/03 02:06:52;;;;;;;7.87;2.10;;;;;;;;;;4434563;32;20082;-69
2022/09/03 02:09:18;;;;;;;3.22;2.12;;;;;;;;;;4434381;32;20385;-69
2022/09/03 02:11:45;;;;;;;3.78;2.12;;;;;;;;;;4437821;32;20118;-69
2022/09/03 02:14:10;;;;;;;3.50;2.10;;;;;;;;;;4449492;32;20153;-69
2022/09/03 02:16:38;;;;;;;8.48;2.30;;;;;;;;;;4449414;32;20034;-69
2022/09/03 02:19:06;;;;;;;5.32;2.55;;;;;;;;;;4449992;32;20025;-69
2022/09/03 02:21:33;;;;;;;3.67;1.98;;;;;;;;;;4449574;32;20048;-69
2022/09/03 02:23:59;;;;;;;4.43;2.10;;;;;;;;;;4449935;32;20022;-69
2022/09/03 02:26:24;;;;;;;4.05;2.05;;;;;;;;;;4449905;32;20052;-68
2022/09/03 02:28:50;;;;;;;6.43;2.33;;;;;;;;;;4449169;32;20429;-69
2022/09/03 02:31:15;;;;;;;4.75;2.17;;;;;;;;;;4449601;32;20113;-69
2022/09/03 02:33:42;;;;;;;7.00;2.33;;;;;;;;;;4449614;32;20052;-69
2022/09/03 02:36:09;;;;;;;5.30;2.40;;;;;;;;;;4449868;32;20014;-69
2022/09/03 02:38:34;;;;;;;4.22;1.95;;;;;;;;;;4449284;32;20051;-69
2022/09/03 02:40:59;;;;;;;11.55;6.05;;;;;;;;;;4449555;32;20438;-69
2022/09/03 02:43:27;;;;;;;12.07;6.00;;;;;;;;;;4447953;32;20385;-69
2022/09/03 02:45:55;;;;;;;15.75;10.57;;;;;;;;;;4433573;32;20109;-69
2022/09/03 02:48:22;;;;;;;13.18;7.20;;;;;;;;;;4434119;32;20053;-69
2022/09/03 02:50:47;;;;;;;11.25;6.85;;;;;;;;;;4434114;32;20029;-69
2022/09/03 02:53:12;;;;;;;9.32;5.35;;;;;;;;;;4433538;32;20109;-69
2022/09/03 02:55:37;;;;;;;8.70;4.87;;;;;;;;;;4432979;32;20384;-69
2022/09/03 02:58:05;;;;;;;9.73;4.23;;;;;;;;;;4433882;32;20159;-69
2022/09/03 03:00:30;;;;;;;6.07;4.05;;;;;;;;;;4432619;32;20250;-69
2022/09/03 03:02:56;;;;;;;7.35;3.58;;;;;;;;;;4433380;32;20411;-69
2022/09/03 03:05:25;;;;;;;5.72;2.85;;;;;;;;;;4436866;32;20026;-69
2022/09/03 03:07:50;;;;;;;4.60;2.80;;;;;;;;;;4436985;32;20535;-69
2022/09/03 03:10:16;;;;;;;3.30;2.37;;;;;;;;;;4436674;32;20389;-69
2022/09/03 03:12:44;;;;;;;4.35;2.20;;;;;;;;;;4437078;32;20067;-69
2022/09/03 03:15:09;;;;;;;3.95;2.08;;;;;;;;;;4436485;32;20452;-69
2022/09/03 03:17:37;;;;;;;5.57;2.20;;;;;;;;;;4436255;32;20026;-68
2022/09/03 03:20:02;;;;;;;3.70;2.20;;;;;;;;;;4436415;32;20017;-69
2022/09/03 03:22:28;;;;;;;5.72;2.30;;;;;;;;;;4436576;32;20018;-69
2022/09/03 03:24:54;;;;;;;5.90;2.40;;;;;;;;;;4435676;32;20044;-69
2022/09/03 03:27:19;;;;;;;5.12;2.20;;;;;;;;;;4450870;32;20116;-69
2022/09/03 03:29:44;;;;;;;4.50;2.20;;;;;;;;;;4451894;32;20139;-69
2022/09/03 03:32:09;;;;;;;3.72;2.78;;;;;;;;;;4450956;32;20254;-69
2022/09/03 03:34:34;;;;;;;7.30;2.75;;;;;;;;;;4452001;32;20094;-69
2022/09/03 03:37:00;;;;;;;6.55;2.37;;;;;;;;;;4451434;32;20057;-69
2022/09/03 03:39:25;;;;;;;2.77;2.00;;;;;;;;;;4451407;32;20021;-68
2022/09/03 03:41:51;;;;;;;3.53;1.98;;;;;;;;;;4450854;32;20127;-68
2022/09/03 03:44:18;;;;;;;9.63;2.60;;;;;;;;;;4450885;32;20519;-69
2022/09/03 03:46:44;;;;;;;4.78;2.03;;;;;;;;;;4451536;32;20025;-68
2022/09/03 03:49:12;;;;;;;7.75;2.60;;;;;;;;;;4451630;32;20044;-69
2022/09/03 03:51:38;;;;;;;4.35;2.30;;;;;;;;;;4451294;32;20013;-68
2022/09/03 03:54:03;;;;;;;5.55;2.78;;;;;;;;;;4451198;32;20076;-69
2022/09/03 03:56:38;;;;;;;4.93;2.28;;;;;;;;;;4450988;32;20402;-68
2022/09/03 03:59:03;;;;;;;4.05;2.10;;;;;;;;;;4450998;32;20044;-69
2022/09/03 04:01:28;;;;;;;4.47;2.20;;;;;;;;;;4441301;32;20041;-68
2022/09/03 04:03:54;;;;;;;3.90;1.85;;;;;;;;;;4435875;32;20026;-69
2022/09/03 04:06:19;;;;;;;3.85;2.20;;;;;;;;;;4435438;32;20038;-68
2022/09/03 04:08:45;;;;;;;6.15;2.53;;;;;;;;;;4436298;32;20081;-69
2022/09/03 04:11:12;;;;;;;6.95;2.53;;;;;;;;;;4447411;32;20025;-68
2022/09/03 04:13:38;;;;;;;5.22;2.20;;;;;;;;;;4450987;32;20356;-69
2022/09/03 04:16:14;;;;;;;4.85;2.22;;;;;;;;;;4450709;32;20418;-69
2022/09/03 04:18:40;;;;;;;3.90;2.60;;;;;;;;;;4451152;32;20032;-68
2022/09/03 04:21:13;;;;;;;4.53;2.62;;;;;;;;;;4450608;32;20063;-69
2022/09/03 04:23:39;;;;;;;8.80;2.60;;;;;;;;;;4451147;32;20029;-69
2022/09/03 04:26:05;;;;;;;4.05;2.30;;;;;;;;;;4450210;32;20394;-69
2022/09/03 04:28:30;;;;;;;8.45;2.47;;;;;;;;;;4450602;32;20049;-69
2022/09/03 04:30:59;;;;;;;2.95;1.92;;;;;;;;;;4450795;32;20047;-69
2022/09/03 04:33:25;;;;;;;5.78;2.65;;;;;;;;;;4450157;32;20036;-68
2022/09/03 04:35:50;;;;;;;4.87;2.50;;;;;;;;;;4451006;32;20089;-68
2022/09/03 04:38:16;;;;;;;4.87;2.60;;;;;;;;;;4450885;32;20026;-69
2022/09/03 04:40:41;;;;;;;3.42;2.12;;;;;;;;;;4441948;32;20491;-68
2022/09/03 04:43:06;;;;;;;2.90;1.98;;;;;;;;;;4435702;32;20059;-68
2022/09/03 04:45:31;;;;;;;7.05;2.80;;;;;;;;;;4434792;32;20026;-69
2022/09/03 04:47:57;;;;;;;6.10;2.47;;;;;;;;;;4434761;32;20018;-68
2022/09/03 04:50:22;;;;;;;2.95;2.22;;;;;;;;;;4435507;32;20022;-68
2022/09/03 04:52:47;;;;;;;2.50;1.77;;;;;;;;;;4434942;32;20409;-68
2022/09/03 04:55:13;;;;;;;4.78;2.17;;;;;;;;;;4434500;32;20037;-68
2022/09/03 04:57:41;;;;;;;6.90;2.80;;;;;;;;;;4435411;32;20509;-68
2022/09/03 05:00:09;;;;;;;6.78;2.83;;;;;;;;;;4435248;32;20055;-68
2022/09/03 05:02:34;;;;;;;5.40;3.05;;;;;;;;;;4435182;32;20096;-68
2022/09/03 05:04:59;;;;;;;7.47;2.67;;;;;;;;;;4435254;32;20091;-68
2022/09/03 05:07:27;;;;;;;6.80;2.43;;;;;;;;;;4434470;32;20136;-68
2022/09/03 05:09:52;;;;;;;5.45;2.70;;;;;;;;;;4441365;32;20421;-68
2022/09/03 05:12:17;;;;;;;6.15;2.40;;;;;;;;;;4450053;32;20451;-68
2022/09/03 05:14:42;;;;;;;3.28;2.28;;;;;;;;;;4450463;32;20155;-68
2022/09/03 05:17:07;;;;;;;3.97;2.60;;;;;;;;;;4449584;32;20058;-68
2022/09/03 05:19:35;;;;;;;4.75;2.33;;;;;;;;;;4450339;32;20290;-68
2022/09/03 05:22:01;;;;;;;6.20;2.30;;;;;;;;;;4450094;32;20188;-68
2022/09/03 05:24:26;;;;;;;6.00;2.53;;;;;;;;;;4444076;32;20030;-68
2022/09/03 05:26:51;;;;;;;3.10;2.17;;;;;;;;;;4434111;32;20517;-68
2022/09/03 05:29:18;;;;;;;6.22;2.62;;;;;;;;;;4434907;32;20032;-68
2022/09/03 05:31:43;;;;;;;3.95;2.30;;;;;;;;;;4434241;32;20554;-68
2022/09/03 05:34:09;;;;;;;5.37;2.17;;;;;;;;;;4434636;32;20429;-68
2022/09/03 05:36:35;;;;;;;4.55;2.37;;;;;;;;;;4434767;32;20170;-68
2022/09/03 05:39:04;;;;;;;5.50;2.37;;;;;;;;;;4443800;32;20109;-68
2022/09/03 05:41:32;;;;;;;4.20;2.30;;;;;;;;;;4449624;32;20040;-68
2022/09/03 05:44:00;;;;;;;6.35;2.67;;;;;;;;;;4450025;32;20340;-68
2022/09/03 05:46:30;;;;;;;3.90;2.00;;;;;;;;;;4449969;32;20056;-68
2022/09/03 05:48:56;;;;;;;4.25;2.10;;;;;;;;;;4449902;32;20290;-68
2022/09/03 05:51:27;;;;;;;3.50;2.37;;;;;;;;;;4447569;32;20059;-68
2022/09/03 05:53:54;;;;;;;9.80;2.60;;;;;;;;;;4450104;32;20373;-69
2022/09/03 05:56:20;;;;;;;6.22;2.65;;;;;;;;;;4449361;32;20137;-68
2022/09/03 05:58:46;;;;;;;5.05;2.35;;;;;;;;;;4434587;32;20017;-68
2022/09/03 06:01:18;;;;;;;4.62;2.30;;;;;;;;;;4434617;32;20026;-69
2022/09/03 06:03:43;;;;;;;7.57;2.58;;;;;;;;;;4433492;32;20055;-68
2022/09/03 06:06:12;;;;;;;4.65;2.35;;;;;;;;;;4433771;32;20026;-69
2022/09/03 06:08:38;;;;;;;4.60;2.45;;;;;;;;;;4442662;32;20207;-69
2022/09/03 06:11:04;;;;;;;7.07;3.47;;;;;;;;;;4434803;32;20037;-69
2022/09/03 06:13:29;;;;;;;3.83;2.20;;;;;;;;;;4434320;32;20093;-68
2022/09/03 06:15:55;;;;;;;4.00;2.47;;;;;;;;;;4434396;32;20056;-69
2022/09/03 06:18:20;;;;;;;6.10;2.55;;;;;;;;;;4434133;32;20105;-68
2022/09/03 06:20:55;;;;;;;4.90;2.40;;;;;;;;;;4432814;32;20029;-68
2022/09/03 06:23:21;;;;;;;4.30;2.30;;;;;;;;;;4432640;32;20167;-68
2022/09/03 06:25:46;;;;;;;6.65;2.97;;;;;;;;;;4432797;32;20458;-69
2022/09/03 06:28:11;;;;;;;4.07;2.67;;;;;;;;;;4432927;32;20078;-67
2022/09/03 06:30:36;;;;;;;5.67;2.70;;;;;;;;;;4433814;32;20154;-65
2022/09/03 06:33:01;;;;;;;4.70;2.60;;;;;;;;;;4433917;32;20113;-65
2022/09/03 06:35:26;;;;;;;7.63;2.70;;;;;;;;;;4442285;32;20425;-68
2022/09/03 06:37:52;;;;;;;7.20;2.80;;;;;;;;;;4443750;32;20112;-66
2022/09/03 06:40:21;;;;;;;5.65;2.78;;;;;;;;;;4445349;32;20045;-67
2022/09/03 06:42:54;;;;;;;7.82;2.58;;;;;;;;;;4451129;32;20029;-66
2022/09/03 06:45:19;;;;;;;3.33;2.62;;;;;;;;;;4452574;32;20357;-72
2022/09/03 06:47:45;;;;;;;8.25;2.80;;;;;;;;;;4452392;32;20123;-70
2022/09/03 06:50:10;;;;;;;6.62;2.60;;;;;;;;;;4451054;32;20464;-68
2022/09/03 06:52:35;;;;;;;3.50;2.60;;;;;;;;;;4452802;32;20116;-68
2022/09/03 06:55:00;;;;;;;6.57;2.70;;;;;;;;;;4450434;32;20160;-69
2022/09/03 06:57:29;;;;;;;3.85;2.65;;;;;;;;;;4452446;32;20124;-77
2022/09/03 06:59:54;;;;;;;6.28;2.70;;;;;;;;;;4452359;32;20531;-78
2022/09/03 07:02:22;;;;;;;6.27;2.53;;;;;;;;;;4450444;32;20018;-75
2022/09/03 07:04:48;;;;;;;7.78;2.62;;;;;;;;;;4450869;32;20139;-72
2022/09/03 07:07:17;;;;;;;4.15;2.25;;;;;;;;;;4452306;32;20041;-74
2022/09/03 07:09:48;;;;;;;8.40;2.80;;;;;;;;;;4451893;32;20389;-78
2022/09/03 07:12:15;;;;;;;6.25;2.80;;;;;;;;;;4450379;32;20029;-64
2022/09/03 07:14:40;;;;;;;8.38;3.17;;;;;;;;;;4436642;32;20065;-68
2022/09/03 07:17:06;;;;;;;9.63;2.70;;;;;;;;;;4436181;32;20385;-73
2022/09/03 07:19:31;;;;;;;4.10;2.35;;;;;;;;;;4448100;32;20115;-73
2022/09/03 07:21:56;;;;;;;7.12;2.65;;;;;;;;;;4451985;32;20025;-72
2022/09/03 07:24:21;;;;;;;8.73;2.80;;;;;;;;;;4449712;32;20074;-73
2022/09/03 07:26:48;;;;;;;7.60;2.60;;;;;;;;;;4435749;32;20182;-72
2022/09/03 07:29:14;;;;;;;3.03;2.17;;;;;;;;;;4436181;32;20068;-72
2022/09/03 07:31:41;;;;;;;4.32;2.15;;;;;;;;;;4436825;32;20386;-73
2022/09/03 07:34:07;;;;;;;6.40;2.58;;;;;;;;;;4441810;32;20018;-74
2022/09/03 07:36:41;;;;;;;7.60;2.75;;;;;;;;;;4451512;32;20390;-74
2022/09/03 07:39:07;;;;;;;4.00;2.20;;;;;;;;;;4452335;32;20120;-74
2022/09/03 07:41:32;;;;;;;4.82;2.83;;;;;;;;;;4451932;32;20017;-74
2022/09/03 07:43:58;;;;;;;4.10;2.40;;;;;;;;;;4451105;32;20123;-75
2022/09/03 07:46:25;;;;;;;8.35;2.55;;;;;;;;;;4451716;32;20191;-75
2022/09/03 07:48:51;;;;;;;4.07;2.10;;;;;;;;;;4449746;32;20294;-75
2022/09/03 07:51:17;;;;;;;5.18;2.62;;;;;;;;;;4450787;32;20093;-75
2022/09/03 07:53:46;;;;;;;4.62;2.58;;;;;;;;;;4451506;32;20022;-75
2022/09/03 07:56:11;;;;;;;4.45;2.40;;;;;;;;;;4450673;32;20095;-74
2022/09/03 07:58:37;;;;;;;5.87;2.45;;;;;;;;;;4451175;32;20088;-75
2022/09/03 08:01:13;;;;;;;6.37;2.28;;;;;;;;;;4450123;32;20017;-75
2022/09/03 08:03:42;;;;;;;4.50;2.78;;;;;;;;;;4435705;32;20022;-76
2022/09/03 08:06:07;;;;;;;6.75;2.53;;;;;;;;;;4435689;32;20050;-77
2022/09/03 08:08:36;;;;;;;6.15;2.70;;;;;;;;;;4436108;32;20341;-77
2022/09/03 08:11:09;;;;;;;4.60;2.45;;;;;;;;;;4435354;32;20123;-77
2022/09/03 08:14:05;;;;;;;5.37;2.55;;;;;;;;;;4435495;32;20026;-75
2022/09/03 08:16:34;;;;;;;11.57;2.95;;;;;;;;;;4437371;32;20402;-74
2022/09/03 08:18:59;;;;;;;8.98;3.00;;;;;;;;;;4450040;32;20054;-73
2022/09/03 08:21:25;;;;;;;5.87;2.72;;;;;;;;;;4451511;32;20317;-73
2022/09/03 08:23:51;;;;;;;8.07;2.42;;;;;;;;;;4450666;32;20299;-73
2022/09/03 08:26:18;;;;;;;9.13;2.47;;;;;;;;;;4450697;32;20071;-74
2022/09/03 08:28:43;;;;;;;4.35;2.72;;;;;;;;;;4451286;32;20025;-74
2022/09/03 08:31:10;;;;;;;4.82;2.67;;;;;;;;;;4451102;32;20059;-74
2022/09/03 08:33:39;;;;;;;7.75;2.55;;;;;;;;;;4450726;32;20064;-74
2022/09/03 08:36:05;;;;;;;4.25;3.25;;;;;;;;;;4451110;32;20053;-73
2022/09/03 08:38:31;;;;;;;5.78;2.60;;;;;;;;;;4450873;32;20523;-75
2022/09/03 08:41:09;;;;;;;10.18;2.40;;;;;;;;;;4450315;32;20017;-74
2022/09/03 08:43:38;;;;;;;6.87;2.70;;;;;;;;;;4449514;32;20071;-73
2022/09/03 08:46:04;;;;;;;7.70;2.80;;;;;;;;;;4450336;32;20071;-67
2022/09/03 08:48:29;;;;;;;9.27;2.55;;;;;;;;;;4450253;32;20021;-66
2022/09/03 08:50:58;;;;;;;9.27;2.72;;;;;;;;;;4443845;32;20013;-74
2022/09/03 08:53:32;;;;;;;5.32;2.30;;;;;;;;;;4434892;32;20060;-74
2022/09/03 08:56:07;;;;;;;5.22;2.92;;;;;;;;;;4434510;32;20068;-74
2022/09/03 08:58:34;;;;;;;8.27;2.85;;;;;;;;;;4434829;32;20049;-75
2022/09/03 09:01:05;;;;;;;6.50;3.22;;;;;;;;;;4433824;32;20025;-76
2022/09/03 09:03:39;;;;;;;7.90;2.10;;;;;;;;;;4435235;32;20059;-71
2022/09/03 09:06:13;;;;;;;5.85;2.20;;;;;;;;;;4435223;32;20025;-70
2022/09/03 09:08:49;;;;;;;6.32;2.10;;;;;;;;;;4433623;32;20030;-70
2022/09/03 09:11:34;;;;;;;5.85;2.20;;;;;;;;;;4434799;32;20177;-78
2022/09/03 09:14:00;;;;;;;8.13;2.33;;;;;;;;;;4444091;32;20045;-79
2022/09/03 09:16:25;;;;;;;7.75;2.58;;;;;;;;;;4450008;32;20021;-78
2022/09/03 09:19:14;;;;;;;3.35;2.30;;;;;;;;;;4450770;32;20083;-78
2022/09/03 09:21:44;;;;;;;4.47;2.17;;;;;;;;;;4450882;32;20679;-77
2022/09/03 09:24:18;;;;;;;3.05;1.80;;;;;;;;;;4450589;32;20033;-77
2022/09/03 09:26:44;;;;;;;4.37;2.00;;;;;;;;;;4452552;32;20026;-78
2022/09/03 09:29:10;;;;;;;4.47;2.28;;;;;;;;;;4450138;32;20055;-80
2022/09/03 09:31:36;;;;;;;3.87;2.25;;;;;;;;;;4451190;32;20129;-77
2022/09/03 09:34:05;;;;;;;7.78;2.60;;;;;;;;;;4446477;32;20029;-76
2022/09/03 09:36:36;;;;;;;4.10;2.40;;;;;;;;;;4434329;32;20118;-78
2022/09/03 09:39:08;;;;;;;5.45;2.30;;;;;;;;;;4434941;32;20041;-78
2022/09/03 09:41:34;;;;;;;5.90;2.75;;;;;;;;;;4434791;32;20385;-79
2022/09/03 09:44:01;;;;;;;4.72;2.40;;;;;;;;;;4446210;32;20437;-79
2022/09/03 09:46:30;;;;;;;5.82;2.37;;;;;;;;;;4449685;32;20101;-78
2022/09/03 09:48:56;;;;;;;4.85;2.20;;;;;;;;;;4449847;32;20052;-77
2022/09/03 09:51:27;;;;;;;6.07;2.22;;;;;;;;;;4434766;32;20068;-73
2022/09/03 09:54:11;;;;;;;4.12;2.30;;;;;;;;;;4433853;32;20413;-78
2022/09/03 09:56:36;;;;;;;4.90;2.30;;;;;;;;;;4434201;32;20026;-78
2022/09/03 09:59:05;;;;;;;6.78;2.65;;;;;;;;;;4434482;32;20060;-79
2022/09/03 10:01:31;;;;;;;5.93;2.53;;;;;;;;;;4434078;32;20048;-79
2022/09/03 10:03:58;;;;;;;5.55;2.20;;;;;;;;;;4434086;32;20041;-78
2022/09/03 10:09:10;;;;;;;3.50;2.30;;;;;;;;;;4434751;32;20048;-79
2022/09/03 10:11:39;;;;;;;6.22;2.70;;;;;;;;;;4434223;32;20119;-79
2022/09/03 10:14:24;;;;;;;7.80;2.65;;;;;;;;;;4450521;32;20033;-79
2022/09/03 10:16:54;;;;;;;4.68;2.40;;;;;;;;;;4452887;32;20116;-80
2022/09/03 10:19:23;;;;;;;4.25;2.45;;;;;;;;;;4457198;32;20405;-79
2022/09/03 10:21:53;;;;;;;6.28;2.12;;;;;;;;;;4453260;32;20071;-79
2022/09/03 10:24:30;;;;;;;7.78;2.35;;;;;;;;;;4453110;32;20412;-79
2022/09/03 10:26:57;;;;;;;4.95;1.87;;;;;;;;;;4451567;32;20014;-79
2022/09/03 10:29:28;;;;;;;7.43;2.55;;;;;;;;;;4437153;32;20041;-79
2022/09/03 10:32:00;;;;;;;3.05;2.15;;;;;;;;;;4438097;32;20021;-79
2022/09/03 10:34:44;;;;;;;5.82;2.03;;;;;;;;;;4437415;32;20025;-78
2022/09/03 10:37:17;;;;;;;8.68;2.28;;;;;;;;;;4437367;32;20089;-78
2022/09/03 10:39:58;;;;;;;5.30;2.20;;;;;;;;;;4436884;32;20018;-78
2022/09/03 10:42:34;;;;;;;5.10;2.47;;;;;;;;;;4437773;32;20025;-79
2022/09/03 10:45:02;;;;;;;4.90;2.15;;;;;;;;;;4437558;32;20121;-79
2022/09/03 10:48:00;;;;;;;5.20;2.25;;;;;;;;;;4437213;32;20074;-79
2022/09/03 10:50:27;;;;;;;5.25;2.08;;;;;;;;;;4437299;32;20066;-78
2022/09/03 10:53:04;;;;;;;8.52;2.42;;;;;;;;;;4437186;32;20029;-78
2022/09/03 10:55:42;;;;;;;5.47;2.40;;;;;;;;;;4437392;32;20082;-78
2022/09/03 10:58:07;;;;;;;6.28;2.70;;;;;;;;;;4437322;32;20029;-79
2022/09/03 11:00:33;;;;;;;3.62;1.77;;;;;;;;;;4437054;32;20025;-73
2022/09/03 11:03:01;;;;;;;7.93;2.30;;;;;;;;;;4437277;32;20025;-78
2022/09/03 11:05:35;;;;;;;4.00;2.47;;;;;;;;;;4436861;32;20108;-78
2022/09/03 11:08:33;;;;;;;6.20;2.25;;;;;;;;;;4436947;32;20017;-76
2022/09/03 11:11:10;;;;;;;7.87;2.50;;;;;;;;;;4401636;32;20466;-76
2022/09/03 11:13:47;;;;;;;6.25;1.95;;;;;;;;;;4422515;32;20044;-77
2022/09/03 11:16:19;;;;;;;8.45;2.17;;;;;;;;;;4442411;32;20040;-77
2022/09/03 11:18:55;;;;;;;5.07;2.03;;;;;;;;;;4443361;32;20047;-78
2022/09/03 11:21:24;;;;;;;3.05;2.05;;;;;;;;;;4434848;32;20432;-77
2022/09/03 11:23:52;;;;;;;7.28;2.12;;;;;;;;;;4444527;32;20021;-76
2022/09/03 11:26:18;;;;;;;4.03;2.20;;;;;;;;;;4435006;32;20554;-77
2022/09/03 12:18:59;;;;;;;5.47;2.50;;;;;;;;;;4461320;32;20401;-70
2022/09/03 12:21:25;;;;;;;4.43;2.65;;;;;;;;;;4448459;32;20038;-70
2022/09/03 12:23:54;;;;;;;5.70;2.95;;;;;;;;;;4449642;32;20366;-70
2022/09/03 12:26:26;;;;;;;4.45;2.35;;;;;;;;;;4448584;32;20033;-70
2022/09/03 12:28:53;;;;;;;5.60;2.50;;;;;;;;;;4448653;32;20528;-71
2022/09/03 12:31:21;;;;;;;9.60;2.90;;;;;;;;;;4449867;32;20118;-71
2022/09/03 12:34:01;;;;;;;7.05;2.70;;;;;;;;;;4448377;32;20029;-71
2022/09/03 12:36:37;;;;;;;6.28;2.60;;;;;;;;;;4449072;32;20025;-70
2022/09/03 12:39:10;;;;;;;4.12;2.40;;;;;;;;;;4444147;32;20050;-71
2022/09/03 12:41:36;;;;;;;5.85;2.65;;;;;;;;;;4433006;32;20056;-70
2022/09/03 12:44:04;;;;;;;16.55;3.70;;;;;;;;;;4433192;32;20094;-71
2022/09/03 12:46:31;;;;;;;9.05;2.80;;;;;;;;;;4432355;32;20097;-71
2022/09/03 12:49:06;;;;;;;8.32;3.12;;;;;;;;;;4432594;32;20064;-69
2022/09/03 12:51:42;;;;;;;7.95;2.80;;;;;;;;;;4424147;32;20030;-71
2022/09/03 12:54:12;;;;;;;;;;;;;;;;;;4432640;32;20339;-70
2022/09/03 12:56:37;;;;;;;9.95;3.50;;;;;;;;;;4430906;32;20035;-71
2022/09/03 12:59:08;;;;;;;9.38;3.12;;;;;;;;;;4432286;32;20045;-71
2022/09/03 13:01:44;;;;;;;4.82;3.28;;;;;;;;;;4432348;32;20079;-71
2022/09/03 13:04:18;;;;;;;11.95;2.95;;;;;;;;;;4430102;32;20045;-71
2022/09/03 13:06:48;;;;;;;12.02;3.03;;;;;;;;;;4417594;32;20034;-71
2022/09/03 13:09:15;;;;;;;5.25;2.62;;;;;;;;;;4418490;32;20091;-71
2022/09/03 13:11:43;;;;;;;10.07;4.35;;;;;;;;;;4417842;32;20056;-71
2022/09/03 13:14:09;;;;;;;5.20;2.78;;;;;;;;;;4417473;32;20062;-71
2022/09/03 13:16:58;;;;;;;6.26;3.52;;;;;;;;;;4417538;32;20026;-71
2022/09/03 13:19:55;;;;;;;9.93;3.03;;;;;;;;;;4417709;32;20348;-71
2022/09/03 13:22:24;;;;;;;9.25;3.10;;;;;;;;;;4417013;32;20026;-71
2022/09/03 13:24:52;;;;;;;4.47;3.00;;;;;;;;;;4418288;32;20034;-71
2022/09/03 13:27:34;;;;;;;6.12;2.78;;;;;;;;;;4417360;32;20026;-70
2022/09/03 13:30:06;;;;;;;4.45;2.87;;;;;;;;;;4407449;32;20026;-71
2022/09/03 13:32:32;;;;;;;4.28;2.45;;;;;;;;;;4415787;32;20026;-71
2022/09/03 13:35:07;;;;;;;7.03;3.28;;;;;;;;;;4423397;32;20060;-71
2022/09/03 13:37:36;;;;;;;8.02;2.70;;;;;;;;;;4422859;32;20026;-71
2022/09/03 13:40:05;;;;;;;8.57;2.70;;;;;;;;;;4422343;32;20404;-71
2022/09/03 13:42:39;;;;;;;4.05;2.40;;;;;;;;;;4422752;32;20044;-71
2022/09/03 13:45:28;;;;;;;7.37;2.53;;;;;;;;;;4423095;32;20033;-72
2022/09/03 13:50:58;;;;;;;8.30;2.70;;;;;;;;;;4423078;32;20076;-72
2022/09/03 13:53:42;;;;;;;4.85;2.10;;;;;;;;;;4422702;32;20022;-71
2022/09/03 13:56:34;;;;;;;11.07;2.60;;;;;;;;;;4418405;32;20437;-71
2022/09/03 13:59:23;;;;;;;9.63;3.40;;;;;;;;;;4420208;32;20025;-71
2022/09/03 14:02:07;;;;;;;8.57;2.55;;;;;;;;;;4406640;32;20054;-71
2022/09/03 14:04:47;;;;;;;11.52;3.05;;;;;;;;;;4415373;32;20059;-71
2022/09/03 14:07:23;;;;;;;7.15;2.62;;;;;;;;;;4422653;32;20048;-71
2022/09/03 14:09:48;;;;;;;;;;;;;;;;;;4422539;32;20053;-71
2022/09/03 14:12:32;;;;;;;6.67;2.30;;;;;;;;;;4421655;32;19964;-72
2022/09/03 14:15:02;;;;;;;7.97;2.17;;;;;;;;;;4421558;32;20117;-72
2022/09/03 14:17:48;;;;;;;6.82;2.65;;;;;;;;;;4420500;32;20057;-71
2022/09/03 14:20:24;;;;;;;4.85;2.50;;;;;;;;;;4420456;32;20026;-72
2022/09/03 14:22:56;;;;;;;5.12;2.00;;;;;;;;;;4420253;32;20553;-72
2022/09/03 14:25:22;;;;;;;2.90;1.98;;;;;;;;;;4420611;32;20424;-73
2022/09/03 14:27:48;;;;;;;6.47;2.50;;;;;;;;;;4422210;32;20407;-72
2022/09/03 14:30:26;;;;;;;5.90;1.98;;;;;;;;;;4420185;32;20026;-72
2022/09/03 14:32:51;;;;;;;5.78;1.90;;;;;;;;;;4419312;32;20062;-71
2022/09/03 14:35:22;;;;;;;4.32;2.42;;;;;;;;;;4420791;32;20056;-71
2022/09/03 14:38:06;;;;;;;5.25;2.30;;;;;;;;;;4421693;32;20082;-71
2022/09/03 14:41:00;;;;;;;3.95;2.15;;;;;;;;;;4420534;32;20022;-71
2022/09/03 14:43:35;;;;;;;4.10;2.25;;;;;;;;;;4421631;32;20412;-71
2022/09/03 14:46:00;;;;;;;3.30;2.33;;;;;;;;;;4422077;32;20054;-71
2022/09/03 14:48:36;;;;;;;13.07;2.53;;;;;;;;;;4420998;32;20081;-72
2022/09/03 14:51:14;;;;;;;3.25;1.95;;;;;;;;;;4421843;32;20069;-71
2022/09/03 14:54:03;;;;;;;5.00;2.03;;;;;;;;;;4421879;32;20053;-70
2022/09/03 14:56:47;;;;;;;8.10;2.40;;;;;;;;;;4420225;32;20080;-71
2022/09/03 14:59:31;;;;;;;4.20;3.10;;;;;;;;;;4419414;32;20033;-71
2022/09/03 15:02:05;;;;;;;9.25;2.10;;;;;;;;;;4421847;32;20053;-70
2022/09/03 15:04:49;;;;;;;9.57;2.03;;;;;;;;;;4421083;32;20103;-70
2022/09/03 15:07:33;;;;;;;4.65;2.70;;;;;;;;;;4421482;32;20014;-70
2022/09/03 15:10:02;;;;;;;6.82;2.55;;;;;;;;;;4421179;32;20460;-71
2022/09/03 15:12:40;;;;;;;7.90;2.60;;;;;;;;;;4421975;32;20325;-71
2022/09/03 15:15:09;;;;;;;9.43;2.60;;;;;;;;;;4421766;32;20022;-71
2022/09/03 15:17:37;;;;;;;4.47;2.08;;;;;;;;;;4419837;32;20053;-71
2022/09/03 15:20:02;;;;;;;7.70;2.55;;;;;;;;;;4415447;32;20021;-71
2022/09/03 15:22:46;;;;;;;7.10;2.28;;;;;;;;;;4421050;32;20088;-70
2022/09/03 15:25:19;;;;;;;3.53;2.22;;;;;;;;;;4421878;32;20052;-71
2022/09/03 15:27:57;;;;;;;9.18;5.32;;;;;;;;;;4421157;32;20026;-72
2022/09/03 15:30:23;;;;;;;4.75;2.20;;;;;;;;;;4420742;32;20077;-72
2022/09/03 15:32:51;;;;;;;13.90;8.27;;;;;;;;;;4421378;32;20061;-71
2022/09/03 15:35:35;;;;;;;4.57;3.10;;;;;;;;;;4421187;32;20371;-71
2022/09/03 15:38:10;;;;;;;6.32;1.95;;;;;;;;;;4421697;32;20072;-71
2022/09/03 15:40:44;;;;;;;10.73;2.67;;;;;;;;;;4420006;32;20037;-71
2022/09/03 15:43:24;;;;;;;4.55;2.92;;;;;;;;;;4421148;32;20030;-71
2022/09/03 15:45:50;;;;;;;5.20;2.80;;;;;;;;;;4420785;32;20384;-71
2022/09/03 15:48:22;;;;;;;7.70;2.40;;;;;;;;;;4420941;32;20075;-70
2022/09/03 15:51:08;;;;;;;8.00;2.10;;;;;;;;;;4420826;32;20362;-70
2022/09/03 15:53:40;;;;;;;5.03;2.87;;;;;;;;;;4420396;32;20053;-70
2022/09/03 15:56:21;;;;;;;5.60;2.70;;;;;;;;;;4420220;32;20419;-69
2022/09/03 15:58:49;;;;;;;10.38;2.90;;;;;;;;;;4420075;32;20060;-69
2022/09/03 16:01:17;;;;;;;7.15;3.00;;;;;;;;;;4420644;32;20355;-70